sensor_id;sensor_type;location;lat;lon;timestamp;P1;durP1;ratioP1;P2;durP2;ratioP2
62056;SDS011;48016;50.284;18.860;2023-08-20T00:01:06;19.90;;;17.70;;
62056;SDS011;48016;50.284;18.860;2023-08-20T00:03:50;19.70;;;17.70;;
62056;SDS011;48016;50.284;18.860;2023-08-20T00:06:16;19.90;;;18.00;;
62056;SDS011;48016;50.284;18.860;2023-08-20T00:08:42;20.20;;;18.10;;
62056;SDS011;48016;50.284;18.860;2023-08-20T00:11:08;21.80;;;18.30;;
62056;SDS011;48016;50.284;18.860;2023-08-20T00:13:35;19.40;;;17.50;;
62056;SDS011;48016;50.284;18.860;2023-08-20T00:16:01;20.10;;;18.00;;
62056;SDS011;48016;50.284;18.860;2023-08-20T00:18:27;20.70;;;18.60;;
62056;SDS011;48016;50.284;18.860;2023-08-20T00:20:54;20.50;;;18.40;;
62056;SDS011;48016;50.284;18.860;2023-08-20T00:23:20;20.70;;;18.50;;
62056;SDS011;48016;50.284;18.860;2023-08-20T00:25:46;20.10;;;18.20;;
62056;SDS011;48016;50.284;18.860;2023-08-20T00:28:12;20.40;;;18.40;;
62056;SDS011;48016;50.284;18.860;2023-08-20T00:30:39;21.00;;;19.00;;
62056;SDS011;48016;50.284;18.860;2023-08-20T00:33:05;21.30;;;18.40;;
62056;SDS011;48016;50.284;18.860;2023-08-20T00:35:31;21.30;;;19.00;;
62056;SDS011;48016;50.284;18.860;2023-08-20T00:37:57;21.10;;;19.00;;
62056;SDS011;48016;50.284;18.860;2023-08-20T00:40:23;21.40;;;19.20;;
62056;SDS011;48016;50.284;18.860;2023-08-20T00:42:49;20.70;;;18.60;;
62056;SDS011;48016;50.284;18.860;2023-08-20T00:45:15;21.70;;;19.50;;
62056;SDS011;48016;50.284;18.860;2023-08-20T00:47:44;21.40;;;19.30;;
62056;SDS011;48016;50.284;18.860;2023-08-20T00:50:10;22.10;;;19.80;;
62056;SDS011;48016;50.284;18.860;2023-08-20T00:52:37;21.70;;;19.50;;
62056;SDS011;48016;50.284;18.860;2023-08-20T00:55:07;22.80;;;20.50;;
62056;SDS011;48016;50.284;18.860;2023-08-20T00:57:35;22.30;;;20.10;;
62056;SDS011;48016;50.284;18.860;2023-08-20T01:00:04;21.80;;;19.60;;
62056;SDS011;48016;50.284;18.860;2023-08-20T01:02:40;22.20;;;19.90;;
62056;SDS011;48016;50.284;18.860;2023-08-20T01:05:06;22.90;;;20.50;;
62056;SDS011;48016;50.284;18.860;2023-08-20T01:10:36;22.60;;;20.30;;
62056;SDS011;48016;50.284;18.860;2023-08-20T01:13:09;22.50;;;20.30;;
62056;SDS011;48016;50.284;18.860;2023-08-20T01:15:35;22.70;;;20.40;;
62056;SDS011;48016;50.284;18.860;2023-08-20T01:18:01;22.80;;;20.40;;
62056;SDS011;48016;50.284;18.860;2023-08-20T01:20:30;22.40;;;20.10;;
62056;SDS011;48016;50.284;18.860;2023-08-20T01:23:18;24.40;;;20.80;;
62056;SDS011;48016;50.284;18.860;2023-08-20T01:29:06;23.60;;;21.00;;
62056;SDS011;48016;50.284;18.860;2023-08-20T01:31:32;25.10;;;22.20;;
62056;SDS011;48016;50.284;18.860;2023-08-20T01:33:59;24.50;;;22.00;;
62056;SDS011;48016;50.284;18.860;2023-08-20T01:38:51;24.70;;;22.10;;
62056;SDS011;48016;50.284;18.860;2023-08-20T01:41:17;24.80;;;22.00;;
62056;SDS011;48016;50.284;18.860;2023-08-20T01:43:43;25.40;;;22.90;;
62056;SDS011;48016;50.284;18.860;2023-08-20T01:46:09;24.80;;;22.40;;
62056;SDS011;48016;50.284;18.860;2023-08-20T01:48:35;25.60;;;22.90;;
62056;SDS011;48016;50.284;18.860;2023-08-20T01:51:01;26.10;;;23.40;;
62056;SDS011;48016;50.284;18.860;2023-08-20T01:53:28;25.00;;;22.10;;
62056;SDS011;48016;50.284;18.860;2023-08-20T01:55:53;26.40;;;23.70;;
62056;SDS011;48016;50.284;18.860;2023-08-20T01:58:19;25.20;;;22.80;;
62056;SDS011;48016;50.284;18.860;2023-08-20T02:00:45;26.70;;;24.00;;
62056;SDS011;48016;50.284;18.860;2023-08-20T02:03:11;26.20;;;23.50;;
62056;SDS011;48016;50.284;18.860;2023-08-20T02:05:37;26.30;;;23.60;;
62056;SDS011;48016;50.284;18.860;2023-08-20T02:08:03;26.90;;;24.00;;
62056;SDS011;48016;50.284;18.860;2023-08-20T02:10:29;26.70;;;24.00;;
62056;SDS011;48016;50.284;18.860;2023-08-20T02:12:55;25.20;;;22.70;;
62056;SDS011;48016;50.284;18.860;2023-08-20T02:15:21;28.00;;;23.40;;
62056;SDS011;48016;50.284;18.860;2023-08-20T02:17:47;24.70;;;22.20;;
62056;SDS011;48016;50.284;18.860;2023-08-20T02:20:13;25.70;;;23.00;;
62056;SDS011;48016;50.284;18.860;2023-08-20T02:22:39;23.60;;;21.10;;
62056;SDS011;48016;50.284;18.860;2023-08-20T02:25:05;25.70;;;22.00;;
62056;SDS011;48016;50.284;18.860;2023-08-20T02:27:32;23.90;;;21.00;;
62056;SDS011;48016;50.284;18.860;2023-08-20T02:29:58;23.90;;;21.40;;
62056;SDS011;48016;50.284;18.860;2023-08-20T02:32:24;24.10;;;21.60;;
62056;SDS011;48016;50.284;18.860;2023-08-20T02:34:51;24.70;;;22.20;;
62056;SDS011;48016;50.284;18.860;2023-08-20T02:37:17;23.50;;;21.20;;
62056;SDS011;48016;50.284;18.860;2023-08-20T02:39:43;25.90;;;22.90;;
62056;SDS011;48016;50.284;18.860;2023-08-20T02:42:09;25.50;;;22.90;;
62056;SDS011;48016;50.284;18.860;2023-08-20T02:44:35;23.80;;;21.10;;
62056;SDS011;48016;50.284;18.860;2023-08-20T02:47:00;23.00;;;20.60;;
62056;SDS011;48016;50.284;18.860;2023-08-20T02:49:26;24.80;;;22.10;;
62056;SDS011;48016;50.284;18.860;2023-08-20T02:51:52;25.00;;;22.20;;
62056;SDS011;48016;50.284;18.860;2023-08-20T02:54:18;25.00;;;22.40;;
62056;SDS011;48016;50.284;18.860;2023-08-20T02:56:44;25.90;;;23.20;;
62056;SDS011;48016;50.284;18.860;2023-08-20T02:59:10;24.90;;;22.30;;
62056;SDS011;48016;50.284;18.860;2023-08-20T03:01:36;25.70;;;21.40;;
62056;SDS011;48016;50.284;18.860;2023-08-20T03:04:02;25.00;;;22.30;;
62056;SDS011;48016;50.284;18.860;2023-08-20T03:06:28;24.30;;;21.60;;
62056;SDS011;48016;50.284;18.860;2023-08-20T03:08:54;25.30;;;22.70;;
62056;SDS011;48016;50.284;18.860;2023-08-20T03:11:20;25.70;;;22.30;;
62056;SDS011;48016;50.284;18.860;2023-08-20T03:13:46;24.60;;;21.80;;
62056;SDS011;48016;50.284;18.860;2023-08-20T03:16:12;25.60;;;22.80;;
62056;SDS011;48016;50.284;18.860;2023-08-20T03:18:37;24.70;;;22.10;;
62056;SDS011;48016;50.284;18.860;2023-08-20T03:21:03;25.50;;;22.70;;
62056;SDS011;48016;50.284;18.860;2023-08-20T03:23:29;25.30;;;22.70;;
62056;SDS011;48016;50.284;18.860;2023-08-20T03:25:58;25.00;;;22.10;;
62056;SDS011;48016;50.284;18.860;2023-08-20T03:28:25;25.20;;;22.30;;
62056;SDS011;48016;50.284;18.860;2023-08-20T03:30:50;25.90;;;22.40;;
62056;SDS011;48016;50.284;18.860;2023-08-20T03:33:16;24.40;;;21.80;;
62056;SDS011;48016;50.284;18.860;2023-08-20T03:35:42;26.60;;;23.90;;
62056;SDS011;48016;50.284;18.860;2023-08-20T03:38:08;26.60;;;23.60;;
62056;SDS011;48016;50.284;18.860;2023-08-20T03:40:34;25.50;;;22.80;;
62056;SDS011;48016;50.284;18.860;2023-08-20T03:43:00;25.90;;;23.10;;
62056;SDS011;48016;50.284;18.860;2023-08-20T03:45:26;25.00;;;22.20;;
62056;SDS011;48016;50.284;18.860;2023-08-20T03:47:52;27.30;;;23.50;;
62056;SDS011;48016;50.284;18.860;2023-08-20T03:50:18;26.70;;;23.80;;
62056;SDS011;48016;50.284;18.860;2023-08-20T03:52:44;26.30;;;22.60;;
62056;SDS011;48016;50.284;18.860;2023-08-20T03:55:09;25.90;;;23.10;;
62056;SDS011;48016;50.284;18.860;2023-08-20T03:57:36;26.00;;;23.40;;
62056;SDS011;48016;50.284;18.860;2023-08-20T04:00:01;25.90;;;23.10;;
62056;SDS011;48016;50.284;18.860;2023-08-20T04:02:29;25.80;;;22.70;;
62056;SDS011;48016;50.284;18.860;2023-08-20T04:04:57;25.40;;;22.70;;
62056;SDS011;48016;50.284;18.860;2023-08-20T04:07:23;25.70;;;23.00;;
62056;SDS011;48016;50.284;18.860;2023-08-20T04:09:49;25.80;;;23.10;;
62056;SDS011;48016;50.284;18.860;2023-08-20T04:12:15;25.60;;;22.80;;
62056;SDS011;48016;50.284;18.860;2023-08-20T04:14:41;25.80;;;23.00;;
62056;SDS011;48016;50.284;18.860;2023-08-20T04:17:06;26.00;;;23.20;;
62056;SDS011;48016;50.284;18.860;2023-08-20T04:19:32;26.30;;;23.50;;
62056;SDS011;48016;50.284;18.860;2023-08-20T04:21:58;26.30;;;23.60;;
62056;SDS011;48016;50.284;18.860;2023-08-20T04:24:24;26.60;;;22.50;;
62056;SDS011;48016;50.284;18.860;2023-08-20T04:26:50;26.00;;;23.30;;
62056;SDS011;48016;50.284;18.860;2023-08-20T04:29:16;25.90;;;23.20;;
62056;SDS011;48016;50.284;18.860;2023-08-20T04:31:42;26.10;;;23.20;;
62056;SDS011;48016;50.284;18.860;2023-08-20T04:34:07;29.50;;;23.80;;
62056;SDS011;48016;50.284;18.860;2023-08-20T04:36:33;26.70;;;23.20;;
62056;SDS011;48016;50.284;18.860;2023-08-20T04:38:59;24.30;;;21.80;;
62056;SDS011;48016;50.284;18.860;2023-08-20T04:41:25;24.80;;;22.30;;
62056;SDS011;48016;50.284;18.860;2023-08-20T04:43:51;25.20;;;22.40;;
62056;SDS011;48016;50.284;18.860;2023-08-20T04:46:17;26.10;;;23.30;;
62056;SDS011;48016;50.284;18.860;2023-08-20T04:48:43;27.40;;;24.30;;
62056;SDS011;48016;50.284;18.860;2023-08-20T04:51:09;24.40;;;21.90;;
62056;SDS011;48016;50.284;18.860;2023-08-20T04:53:36;25.20;;;22.60;;
62056;SDS011;48016;50.284;18.860;2023-08-20T04:56:02;24.40;;;21.90;;
62056;SDS011;48016;50.284;18.860;2023-08-20T04:58:28;23.80;;;21.40;;
62056;SDS011;48016;50.284;18.860;2023-08-20T05:00:54;23.30;;;20.90;;
62056;SDS011;48016;50.284;18.860;2023-08-20T05:03:20;22.50;;;20.20;;
62056;SDS011;48016;50.284;18.860;2023-08-20T05:05:49;22.30;;;20.10;;
62056;SDS011;48016;50.284;18.860;2023-08-20T05:08:16;22.50;;;20.30;;
62056;SDS011;48016;50.284;18.860;2023-08-20T05:10:42;21.40;;;19.30;;
62056;SDS011;48016;50.284;18.860;2023-08-20T05:13:08;21.60;;;19.40;;
62056;SDS011;48016;50.284;18.860;2023-08-20T05:15:34;23.80;;;21.40;;
62056;SDS011;48016;50.284;18.860;2023-08-20T05:18:00;23.50;;;20.90;;
62056;SDS011;48016;50.284;18.860;2023-08-20T05:20:26;23.20;;;20.70;;
62056;SDS011;48016;50.284;18.860;2023-08-20T05:22:52;23.60;;;21.00;;
62056;SDS011;48016;50.284;18.860;2023-08-20T05:25:18;24.40;;;21.70;;
62056;SDS011;48016;50.284;18.860;2023-08-20T05:27:44;23.10;;;20.80;;
62056;SDS011;48016;50.284;18.860;2023-08-20T05:30:10;22.90;;;20.50;;
62056;SDS011;48016;50.284;18.860;2023-08-20T05:32:36;20.90;;;18.80;;
62056;SDS011;48016;50.284;18.860;2023-08-20T05:35:02;20.40;;;18.40;;
62056;SDS011;48016;50.284;18.860;2023-08-20T05:39:55;21.00;;;19.00;;
62056;SDS011;48016;50.284;18.860;2023-08-20T05:42:21;20.40;;;17.90;;
62056;SDS011;48016;50.284;18.860;2023-08-20T05:44:47;20.20;;;18.20;;
62056;SDS011;48016;50.284;18.860;2023-08-20T05:47:13;22.00;;;17.40;;
62056;SDS011;48016;50.284;18.860;2023-08-20T05:49:38;19.40;;;16.90;;
62056;SDS011;48016;50.284;18.860;2023-08-20T05:52:04;19.00;;;17.20;;
62056;SDS011;48016;50.284;18.860;2023-08-20T05:54:30;18.20;;;16.30;;
62056;SDS011;48016;50.284;18.860;2023-08-20T05:56:57;18.40;;;16.60;;
62056;SDS011;48016;50.284;18.860;2023-08-20T05:59:26;19.00;;;17.20;;
62056;SDS011;48016;50.284;18.860;2023-08-20T06:01:52;18.90;;;17.00;;
62056;SDS011;48016;50.284;18.860;2023-08-20T06:04:21;18.60;;;16.80;;
62056;SDS011;48016;50.284;18.860;2023-08-20T06:06:48;18.70;;;16.90;;
62056;SDS011;48016;50.284;18.860;2023-08-20T06:09:14;18.80;;;16.80;;
62056;SDS011;48016;50.284;18.860;2023-08-20T06:11:40;18.90;;;16.90;;
62056;SDS011;48016;50.284;18.860;2023-08-20T06:14:06;18.80;;;16.90;;
62056;SDS011;48016;50.284;18.860;2023-08-20T06:16:31;18.10;;;16.20;;
62056;SDS011;48016;50.284;18.860;2023-08-20T06:18:57;18.20;;;15.70;;
62056;SDS011;48016;50.284;18.860;2023-08-20T06:21:24;16.80;;;15.10;;
62056;SDS011;48016;50.284;18.860;2023-08-20T06:23:49;16.70;;;13.80;;
62056;SDS011;48016;50.284;18.860;2023-08-20T06:26:15;18.00;;;15.00;;
62056;SDS011;48016;50.284;18.860;2023-08-20T06:28:41;16.20;;;14.70;;
62056;SDS011;48016;50.284;18.860;2023-08-20T06:31:08;15.80;;;14.10;;
62056;SDS011;48016;50.284;18.860;2023-08-20T06:33:34;15.30;;;13.70;;
62056;SDS011;48016;50.284;18.860;2023-08-20T06:36:00;15.70;;;14.10;;
62056;SDS011;48016;50.284;18.860;2023-08-20T06:38:26;15.60;;;13.90;;
62056;SDS011;48016;50.284;18.860;2023-08-20T06:40:52;15.40;;;13.90;;
62056;SDS011;48016;50.284;18.860;2023-08-20T06:43:18;14.50;;;13.10;;
62056;SDS011;48016;50.284;18.860;2023-08-20T06:45:44;14.70;;;13.10;;
62056;SDS011;48016;50.284;18.860;2023-08-20T06:48:10;14.30;;;12.80;;
62056;SDS011;48016;50.284;18.860;2023-08-20T06:50:36;14.60;;;12.60;;
62056;SDS011;48016;50.284;18.860;2023-08-20T06:53:02;14.00;;;12.30;;
62056;SDS011;48016;50.284;18.860;2023-08-20T06:55:28;13.50;;;12.20;;
62056;SDS011;48016;50.284;18.860;2023-08-20T06:57:54;13.60;;;12.20;;
62056;SDS011;48016;50.284;18.860;2023-08-20T07:00:20;13.30;;;12.00;;
62056;SDS011;48016;50.284;18.860;2023-08-20T07:02:45;13.90;;;11.40;;
62056;SDS011;48016;50.284;18.860;2023-08-20T07:05:11;13.90;;;12.40;;
62056;SDS011;48016;50.284;18.860;2023-08-20T07:07:38;12.80;;;11.50;;
62056;SDS011;48016;50.284;18.860;2023-08-20T07:12:31;13.10;;;11.80;;
62056;SDS011;48016;50.284;18.860;2023-08-20T07:14:56;13.70;;;12.40;;
62056;SDS011;48016;50.284;18.860;2023-08-20T07:17:22;13.60;;;12.40;;
62056;SDS011;48016;50.284;18.860;2023-08-20T07:19:48;13.10;;;11.60;;
62056;SDS011;48016;50.284;18.860;2023-08-20T07:22:14;14.00;;;12.60;;
62056;SDS011;48016;50.284;18.860;2023-08-20T07:24:40;14.60;;;11.80;;
62056;SDS011;48016;50.284;18.860;2023-08-20T07:27:06;13.40;;;12.20;;
62056;SDS011;48016;50.284;18.860;2023-08-20T07:29:36;12.70;;;11.40;;
62056;SDS011;48016;50.284;18.860;2023-08-20T07:32:02;12.70;;;11.60;;
62056;SDS011;48016;50.284;18.860;2023-08-20T07:34:29;12.70;;;11.40;;
62056;SDS011;48016;50.284;18.860;2023-08-20T07:36:56;14.60;;;12.20;;
62056;SDS011;48016;50.284;18.860;2023-08-20T07:39:22;13.20;;;12.00;;
62056;SDS011;48016;50.284;18.860;2023-08-20T07:41:48;13.10;;;11.70;;
62056;SDS011;48016;50.284;18.860;2023-08-20T07:44:14;12.40;;;11.20;;
62056;SDS011;48016;50.284;18.860;2023-08-20T07:46:40;12.90;;;11.60;;
62056;SDS011;48016;50.284;18.860;2023-08-20T07:49:06;13.20;;;12.00;;
62056;SDS011;48016;50.284;18.860;2023-08-20T07:51:32;12.60;;;11.40;;
62056;SDS011;48016;50.284;18.860;2023-08-20T07:53:57;13.40;;;12.00;;
62056;SDS011;48016;50.284;18.860;2023-08-20T07:56:24;22.20;;;12.50;;
62056;SDS011;48016;50.284;18.860;2023-08-20T07:58:50;16.70;;;12.20;;
62056;SDS011;48016;50.284;18.860;2023-08-20T08:01:16;13.30;;;11.30;;
62056;SDS011;48016;50.284;18.860;2023-08-20T08:03:42;13.20;;;11.20;;
62056;SDS011;48016;50.284;18.860;2023-08-20T08:06:08;12.30;;;10.80;;
62056;SDS011;48016;50.284;18.860;2023-08-20T08:08:34;13.80;;;11.50;;
62056;SDS011;48016;50.284;18.860;2023-08-20T08:11:00;11.70;;;10.60;;
62056;SDS011;48016;50.284;18.860;2023-08-20T08:13:26;12.90;;;11.40;;
62056;SDS011;48016;50.284;18.860;2023-08-20T08:15:52;14.30;;;11.40;;
62056;SDS011;48016;50.284;18.860;2023-08-20T08:18:18;11.90;;;10.70;;
62056;SDS011;48016;50.284;18.860;2023-08-20T08:20:45;14.90;;;10.70;;
62056;SDS011;48016;50.284;18.860;2023-08-20T08:23:11;11.40;;;10.40;;
62056;SDS011;48016;50.284;18.860;2023-08-20T08:25:37;12.20;;;10.10;;
62056;SDS011;48016;50.284;18.860;2023-08-20T08:28:04;11.90;;;10.60;;
62056;SDS011;48016;50.284;18.860;2023-08-20T08:30:30;11.10;;;10.10;;
62056;SDS011;48016;50.284;18.860;2023-08-20T08:32:56;12.40;;;11.20;;
62056;SDS011;48016;50.284;18.860;2023-08-20T08:35:22;13.60;;;11.20;;
62056;SDS011;48016;50.284;18.860;2023-08-20T08:37:48;12.30;;;11.10;;
62056;SDS011;48016;50.284;18.860;2023-08-20T08:40:14;12.40;;;11.30;;
62056;SDS011;48016;50.284;18.860;2023-08-20T08:42:40;12.40;;;10.90;;
62056;SDS011;48016;50.284;18.860;2023-08-20T08:45:06;11.80;;;10.70;;
62056;SDS011;48016;50.284;18.860;2023-08-20T08:47:33;11.90;;;10.70;;
62056;SDS011;48016;50.284;18.860;2023-08-20T08:50:00;11.80;;;10.70;;
62056;SDS011;48016;50.284;18.860;2023-08-20T08:52:28;12.30;;;11.10;;
62056;SDS011;48016;50.284;18.860;2023-08-20T08:54:53;12.30;;;10.90;;
62056;SDS011;48016;50.284;18.860;2023-08-20T08:57:19;11.20;;;10.10;;
62056;SDS011;48016;50.284;18.860;2023-08-20T08:59:45;12.50;;;11.10;;
62056;SDS011;48016;50.284;18.860;2023-08-20T09:02:12;13.30;;;10.90;;
62056;SDS011;48016;50.284;18.860;2023-08-20T09:04:39;13.10;;;11.10;;
62056;SDS011;48016;50.284;18.860;2023-08-20T09:07:06;12.30;;;11.20;;
62056;SDS011;48016;50.284;18.860;2023-08-20T09:09:37;11.50;;;10.50;;
62056;SDS011;48016;50.284;18.860;2023-08-20T09:14:40;11.70;;;10.60;;
62056;SDS011;48016;50.284;18.860;2023-08-20T09:17:10;12.00;;;10.90;;
62056;SDS011;48016;50.284;18.860;2023-08-20T09:19:37;13.40;;;11.20;;
62056;SDS011;48016;50.284;18.860;2023-08-20T09:22:03;11.80;;;10.60;;
62056;SDS011;48016;50.284;18.860;2023-08-20T09:24:33;13.60;;;12.20;;
62056;SDS011;48016;50.284;18.860;2023-08-20T09:27:07;12.40;;;11.10;;
62056;SDS011;48016;50.284;18.860;2023-08-20T09:29:43;13.00;;;11.10;;
62056;SDS011;48016;50.284;18.860;2023-08-20T09:32:24;13.50;;;12.20;;
62056;SDS011;48016;50.284;18.860;2023-08-20T09:34:52;12.10;;;10.80;;
62056;SDS011;48016;50.284;18.860;2023-08-20T09:37:20;11.70;;;10.50;;
62056;SDS011;48016;50.284;18.860;2023-08-20T09:39:47;12.00;;;10.70;;
62056;SDS011;48016;50.284;18.860;2023-08-20T09:44:40;10.80;;;9.80;;
62056;SDS011;48016;50.284;18.860;2023-08-20T09:47:11;11.10;;;10.10;;
62056;SDS011;48016;50.284;18.860;2023-08-20T09:49:39;10.90;;;9.80;;
62056;SDS011;48016;50.284;18.860;2023-08-20T09:52:08;10.60;;;9.60;;
62056;SDS011;48016;50.284;18.860;2023-08-20T09:57:05;10.70;;;9.70;;
62056;SDS011;48016;50.284;18.860;2023-08-20T09:59:37;11.70;;;10.60;;
62056;SDS011;48016;50.284;18.860;2023-08-20T10:02:04;10.30;;;9.40;;
62056;SDS011;48016;50.284;18.860;2023-08-20T10:04:31;10.80;;;9.80;;
62056;SDS011;48016;50.284;18.860;2023-08-20T10:06:57;9.30;;;8.30;;
62056;SDS011;48016;50.284;18.860;2023-08-20T10:09:24;12.30;;;9.00;;
62056;SDS011;48016;50.284;18.860;2023-08-20T10:11:51;9.80;;;8.90;;
62056;SDS011;48016;50.284;18.860;2023-08-20T10:14:17;9.30;;;8.40;;
62056;SDS011;48016;50.284;18.860;2023-08-20T10:16:43;9.30;;;8.40;;
62056;SDS011;48016;50.284;18.860;2023-08-20T10:19:09;9.60;;;8.80;;
62056;SDS011;48016;50.284;18.860;2023-08-20T10:21:35;8.90;;;8.10;;
62056;SDS011;48016;50.284;18.860;2023-08-20T10:24:05;8.90;;;7.90;;
62056;SDS011;48016;50.284;18.860;2023-08-20T10:26:33;9.30;;;8.50;;
62056;SDS011;48016;50.284;18.860;2023-08-20T10:32:03;10.20;;;9.10;;
62056;SDS011;48016;50.284;18.860;2023-08-20T10:34:38;10.30;;;9.20;;
62056;SDS011;48016;50.284;18.860;2023-08-20T10:37:48;10.70;;;9.70;;
62056;SDS011;48016;50.284;18.860;2023-08-20T10:39:55;9.00;;;8.10;;
62056;SDS011;48016;50.284;18.860;2023-08-20T10:42:22;8.70;;;7.90;;
62056;SDS011;48016;50.284;18.860;2023-08-20T10:50:17;8.20;;;7.50;;
62056;SDS011;48016;50.284;18.860;2023-08-20T10:52:48;8.40;;;7.60;;
62056;SDS011;48016;50.284;18.860;2023-08-20T10:55:15;8.00;;;7.30;;
62056;SDS011;48016;50.284;18.860;2023-08-20T10:57:48;8.50;;;7.70;;
62056;SDS011;48016;50.284;18.860;2023-08-20T11:00:21;9.90;;;7.80;;
62056;SDS011;48016;50.284;18.860;2023-08-20T11:02:47;8.20;;;7.40;;
62056;SDS011;48016;50.284;18.860;2023-08-20T11:05:18;10.00;;;8.00;;
62056;SDS011;48016;50.284;18.860;2023-08-20T11:07:45;9.10;;;8.20;;
62056;SDS011;48016;50.284;18.860;2023-08-20T11:10:16;8.50;;;7.70;;
62056;SDS011;48016;50.284;18.860;2023-08-20T11:12:43;9.20;;;8.40;;
62056;SDS011;48016;50.284;18.860;2023-08-20T11:15:11;9.50;;;8.60;;
62056;SDS011;48016;50.284;18.860;2023-08-20T11:17:40;9.80;;;8.60;;
62056;SDS011;48016;50.284;18.860;2023-08-20T11:20:15;9.40;;;8.50;;
62056;SDS011;48016;50.284;18.860;2023-08-20T11:22:41;10.50;;;8.40;;
62056;SDS011;48016;50.284;18.860;2023-08-20T11:25:10;10.00;;;9.00;;
62056;SDS011;48016;50.284;18.860;2023-08-20T11:27:41;10.20;;;9.20;;
62056;SDS011;48016;50.284;18.860;2023-08-20T11:30:08;11.20;;;9.60;;
62056;SDS011;48016;50.284;18.860;2023-08-20T11:32:37;11.00;;;9.80;;
62056;SDS011;48016;50.284;18.860;2023-08-20T11:35:04;10.30;;;9.40;;
62056;SDS011;48016;50.284;18.860;2023-08-20T11:37:33;11.50;;;9.40;;
62056;SDS011;48016;50.284;18.860;2023-08-20T11:40:00;10.70;;;9.70;;
62056;SDS011;48016;50.284;18.860;2023-08-20T11:42:25;10.10;;;9.20;;
62056;SDS011;48016;50.284;18.860;2023-08-20T11:44:54;10.20;;;9.20;;
62056;SDS011;48016;50.284;18.860;2023-08-20T11:47:21;10.80;;;9.80;;
62056;SDS011;48016;50.284;18.860;2023-08-20T11:49:47;10.40;;;9.40;;
62056;SDS011;48016;50.284;18.860;2023-08-20T11:52:13;10.60;;;9.60;;
62056;SDS011;48016;50.284;18.860;2023-08-20T11:54:39;10.60;;;9.60;;
62056;SDS011;48016;50.284;18.860;2023-08-20T11:57:07;10.40;;;9.30;;
62056;SDS011;48016;50.284;18.860;2023-08-20T11:59:33;10.80;;;9.70;;
62056;SDS011;48016;50.284;18.860;2023-08-20T12:02:00;10.40;;;9.40;;
62056;SDS011;48016;50.284;18.860;2023-08-20T12:04:28;9.80;;;9.00;;
62056;SDS011;48016;50.284;18.860;2023-08-20T12:07:02;10.30;;;9.40;;
62056;SDS011;48016;50.284;18.860;2023-08-20T12:09:35;10.10;;;9.10;;
62056;SDS011;48016;50.284;18.860;2023-08-20T12:14:27;12.30;;;9.60;;
62056;SDS011;48016;50.284;18.860;2023-08-20T12:16:54;10.70;;;9.80;;
62056;SDS011;48016;50.284;18.860;2023-08-20T12:19:20;11.20;;;10.20;;
62056;SDS011;48016;50.284;18.860;2023-08-20T12:21:47;11.00;;;10.00;;
62056;SDS011;48016;50.284;18.860;2023-08-20T12:24:14;11.10;;;10.00;;
62056;SDS011;48016;50.284;18.860;2023-08-20T12:26:40;11.20;;;9.90;;
62056;SDS011;48016;50.284;18.860;2023-08-20T12:29:07;10.10;;;9.20;;
62056;SDS011;48016;50.284;18.860;2023-08-20T12:31:33;9.40;;;8.40;;
62056;SDS011;48016;50.284;18.860;2023-08-20T12:34:00;9.80;;;8.90;;
62056;SDS011;48016;50.284;18.860;2023-08-20T12:36:27;10.30;;;9.30;;
62056;SDS011;48016;50.284;18.860;2023-08-20T12:38:54;9.70;;;8.70;;
62056;SDS011;48016;50.284;18.860;2023-08-20T12:41:20;9.60;;;8.70;;
62056;SDS011;48016;50.284;18.860;2023-08-20T12:43:47;9.50;;;8.60;;
62056;SDS011;48016;50.284;18.860;2023-08-20T12:46:13;10.00;;;9.00;;
62056;SDS011;48016;50.284;18.860;2023-08-20T12:48:39;10.00;;;8.60;;
62056;SDS011;48016;50.284;18.860;2023-08-20T12:55:57;9.10;;;8.30;;
62056;SDS011;48016;50.284;18.860;2023-08-20T12:58:23;9.60;;;8.70;;
62056;SDS011;48016;50.284;18.860;2023-08-20T13:03:17;8.80;;;7.90;;
62056;SDS011;48016;50.284;18.860;2023-08-20T13:05:44;9.30;;;8.30;;
62056;SDS011;48016;50.284;18.860;2023-08-20T13:08:10;8.70;;;7.90;;
62056;SDS011;48016;50.284;18.860;2023-08-20T13:10:41;11.20;;;8.50;;
62056;SDS011;48016;50.284;18.860;2023-08-20T13:13:10;8.80;;;7.90;;
62056;SDS011;48016;50.284;18.860;2023-08-20T13:15:38;10.50;;;8.50;;
62056;SDS011;48016;50.284;18.860;2023-08-20T13:18:04;8.40;;;7.60;;
62056;SDS011;48016;50.284;18.860;2023-08-20T13:20:33;9.40;;;7.70;;
62056;SDS011;48016;50.284;18.860;2023-08-20T13:22:59;9.00;;;8.20;;
62056;SDS011;48016;50.284;18.860;2023-08-20T13:25:24;8.80;;;8.00;;
62056;SDS011;48016;50.284;18.860;2023-08-20T13:27:50;9.20;;;8.40;;
62056;SDS011;48016;50.284;18.860;2023-08-20T13:30:16;8.20;;;7.10;;
62056;SDS011;48016;50.284;18.860;2023-08-20T13:32:43;8.80;;;8.00;;
62056;SDS011;48016;50.284;18.860;2023-08-20T13:35:09;8.80;;;8.00;;
62056;SDS011;48016;50.284;18.860;2023-08-20T13:37:35;8.30;;;7.60;;
62056;SDS011;48016;50.284;18.860;2023-08-20T13:40:01;8.80;;;7.50;;
62056;SDS011;48016;50.284;18.860;2023-08-20T13:42:29;8.30;;;7.60;;
62056;SDS011;48016;50.284;18.860;2023-08-20T13:44:55;8.60;;;7.80;;
62056;SDS011;48016;50.284;18.860;2023-08-20T13:47:21;9.40;;;8.50;;
62056;SDS011;48016;50.284;18.860;2023-08-20T13:49:47;9.10;;;8.20;;
62056;SDS011;48016;50.284;18.860;2023-08-20T13:52:13;9.20;;;8.40;;
62056;SDS011;48016;50.284;18.860;2023-08-20T13:54:38;9.00;;;8.10;;
62056;SDS011;48016;50.284;18.860;2023-08-20T13:57:04;8.50;;;7.80;;
62056;SDS011;48016;50.284;18.860;2023-08-20T13:59:30;8.80;;;8.00;;
62056;SDS011;48016;50.284;18.860;2023-08-20T14:01:57;8.70;;;8.00;;
62056;SDS011;48016;50.284;18.860;2023-08-20T14:04:24;8.60;;;7.80;;
62056;SDS011;48016;50.284;18.860;2023-08-20T14:06:50;8.40;;;7.50;;
62056;SDS011;48016;50.284;18.860;2023-08-20T14:09:16;8.70;;;7.60;;
62056;SDS011;48016;50.284;18.860;2023-08-20T14:11:44;11.80;;;8.80;;
62056;SDS011;48016;50.284;18.860;2023-08-20T14:14:11;9.30;;;8.20;;
62056;SDS011;48016;50.284;18.860;2023-08-20T14:16:36;9.80;;;8.60;;
62056;SDS011;48016;50.284;18.860;2023-08-20T14:19:03;9.60;;;7.70;;
62056;SDS011;48016;50.284;18.860;2023-08-20T14:21:29;8.70;;;7.90;;
62056;SDS011;48016;50.284;18.860;2023-08-20T14:23:55;9.20;;;8.00;;
62056;SDS011;48016;50.284;18.860;2023-08-20T14:26:20;8.70;;;7.90;;
62056;SDS011;48016;50.284;18.860;2023-08-20T14:28:46;10.60;;;7.70;;
62056;SDS011;48016;50.284;18.860;2023-08-20T14:31:12;8.20;;;7.00;;
62056;SDS011;48016;50.284;18.860;2023-08-20T14:33:38;8.50;;;7.60;;
62056;SDS011;48016;50.284;18.860;2023-08-20T14:36:04;8.30;;;7.50;;
62056;SDS011;48016;50.284;18.860;2023-08-20T14:38:30;7.80;;;7.00;;
62056;SDS011;48016;50.284;18.860;2023-08-20T14:41:00;7.70;;;6.60;;
62056;SDS011;48016;50.284;18.860;2023-08-20T14:43:27;8.00;;;7.20;;
62056;SDS011;48016;50.284;18.860;2023-08-20T14:45:53;8.50;;;7.60;;
62056;SDS011;48016;50.284;18.860;2023-08-20T14:48:21;7.90;;;7.10;;
62056;SDS011;48016;50.284;18.860;2023-08-20T14:50:48;8.70;;;7.90;;
62056;SDS011;48016;50.284;18.860;2023-08-20T14:53:14;8.30;;;7.40;;